^^
Station Historical Data
Daily Summary for November 09, 2018 Units:  English    Metric   Both
« Previous Day
Next Day »
Daily Weekly Monthly Yearly Custom
  High: Low: Average:
Temperature: TemperatureF °F 26.3 °F 31.2 °F
Dew Point: DewpointF °F 24.5 °F 29.1 °F
Humidity: Humidity % 82 % 91 %
Wind Speed: WindSpeedMPH mph 0.0 mph 0.4 mph
Wind Gust: WindSpeedGustMPH mph - -
Wind:- - ESE
Pressure: PressureIn in 29.81 in -
Precipitation: 0.56 in    
Historical Graphs
 
 
Tabular Data for November 09, 2018
Time Temperature Dew Point Pressure Wind Wind Speed Wind Gust Humidity Rainfall Rate (Hourly) solar Conditions
TemperatureF °F DewpointF °F PressureIn in Calm     Humidity % HourlyPrecipIn in SoftwareType W/m2 Conditions
00:05 33.2 °F 30.6 °F 30.30 in NNW 2.0 mph 5.0 mph 90 % 0.00 in WeatherDisplay:10.37 W/m2 RA
00:10 33.1 °F 30.5 °F 30.30 in Calm   5.0 mph 90 % 0.00 in WeatherDisplay:10.37 W/m2 FEW
00:15 33.1 °F 30.5 °F 30.30 in NNW 1.0 mph 4.0 mph 90 % 0.00 in WeatherDisplay:10.37 W/m2 FEW
00:20 33.1 °F 30.7 °F 30.30 in Calm   3.0 mph 91 % 0.00 in WeatherDisplay:10.37 W/m2 FEW
00:25 33.0 °F 30.7 °F 30.30 in Calm   2.0 mph 91 % 0.00 in WeatherDisplay:10.37 W/m2 FEW
00:30 32.9 °F 30.3 °F 30.30 in Calm     90 % 0.00 in WeatherDisplay:10.37 W/m2 FEW
00:35 32.8 °F 30.2 °F 30.31 in Calm     90 % 0.00 in WeatherDisplay:10.37 W/m2 FEW
00:40 32.7 °F 30.1 °F 30.31 in Calm     90 % 0.00 in WeatherDisplay:10.37 W/m2 FEW
00:45 32.5 °F 29.9 °F 30.31 in Calm     90 % 0.00 in WeatherDisplay:10.37 W/m2 FEW
00:50 32.3 °F 29.7 °F 30.31 in Calm     90 % 0.00 in WeatherDisplay:10.37 W/m2 FEW
00:55 32.1 °F 29.2 °F 30.31 in Calm     89 % 0.00 in WeatherDisplay:10.37 W/m2 FEW
01:00 31.8 °F 28.9 °F 30.31 in Calm     89 % 0.00 in WeatherDisplay:10.37 W/m2 FEW
01:05 31.6 °F 28.7 °F 30.31 in Calm     89 % 0.00 in WeatherDisplay:10.37 W/m2 FEW
01:10 31.5 °F 28.6 °F 30.32 in Calm     89 % 0.00 in WeatherDisplay:10.37 W/m2 FEW
01:15 31.3 °F 28.7 °F 30.32 in Calm     90 % 0.00 in WeatherDisplay:10.37 W/m2 FEW
01:20 31.1 °F 28.5 °F 30.32 in Calm     90 % 0.00 in WeatherDisplay:10.37 W/m2 FEW
01:35 30.5 °F 27.9 °F 30.32 in Calm     90 % 0.00 in WeatherDisplay:10.37 W/m2 FEW
01:40 30.4 °F 27.8 °F 30.33 in Calm     90 % 0.00 in WeatherDisplay:10.37 W/m2 FEW
01:45 30.2 °F 27.9 °F 30.33 in Calm     91 % 0.00 in WeatherDisplay:10.37 W/m2 FEW
01:50 30.2 °F 27.9 °F 30.33 in Calm     91 % 0.00 in WeatherDisplay:10.37 W/m2 FEW
02:05 29.8 °F 27.5 °F 30.33 in Calm   1.0 mph 91 % 0.00 in WeatherDisplay:10.37 W/m2 FEW
02:20 29.7 °F 27.7 °F 30.33 in Calm   4.0 mph 92 % 0.00 in WeatherDisplay:10.37 W/m2 FEW
02:30 29.9 °F 28.1 °F 30.33 in Calm     93 % 0.00 in WeatherDisplay:10.37 W/m2 FEW
02:55 30.4 °F 28.6 °F 30.34 in Calm   1.0 mph 93 % 0.00 in WeatherDisplay:10.37 W/m2 FEW
03:05 30.5 °F 29.0 °F 30.34 in NNW 1.0 mph 4.0 mph 94 % 0.00 in WeatherDisplay:10.37 W/m2 FEW
03:10 30.5 °F 29.0 °F 30.33 in Calm   1.0 mph 94 % 0.00 in WeatherDisplay:10.37 W/m2 FEW
03:15 30.6 °F 29.1 °F 30.33 in Calm     94 % 0.00 in WeatherDisplay:10.37 W/m2 FEW
03:25 30.6 °F 29.1 °F 30.33 in Calm     94 % 0.00 in WeatherDisplay:10.37 W/m2 FEW
03:35 30.6 °F 29.1 °F 30.33 in Calm     94 % 0.00 in WeatherDisplay:10.37 W/m2 FEW
04:10 29.9 °F 28.1 °F 30.35 in Calm     93 % 0.00 in WeatherDisplay:10.37 W/m2 FEW
04:15 29.8 °F 28.0 °F 30.35 in Calm     93 % 0.00 in WeatherDisplay:10.37 W/m2 FEW
04:20 29.6 °F 27.8 °F 30.35 in Calm     93 % 0.00 in WeatherDisplay:10.37 W/m2 FEW
04:25 29.5 °F 27.7 °F 30.35 in Calm     93 % 0.00 in WeatherDisplay:10.37 W/m2 FEW
04:35 29.2 °F 27.4 °F 30.35 in Calm     93 % 0.00 in WeatherDisplay:10.37 W/m2 FEW
04:45 28.8 °F 27.1 °F 30.35 in Calm     93 % 0.00 in WeatherDisplay:10.37 W/m2 FEW
05:00 28.4 °F 26.4 °F 30.35 in Calm     92 % 0.00 in WeatherDisplay:10.37 W/m2 FEW
05:10 28.2 °F 26.2 °F 30.34 in Calm     92 % 0.00 in WeatherDisplay:10.37 W/m2 FEW
05:35 27.7 °F 25.7 °F 30.35 in Calm     92 % 0.00 in WeatherDisplay:10.37 W/m2 FEW
05:40 27.5 °F 25.5 °F 30.35 in Calm     92 % 0.00 in WeatherDisplay:10.37 W/m2 FEW
05:55 27.1 °F 25.1 °F 30.35 in Calm     92 % 0.00 in WeatherDisplay:10.37 W/m2 FEW
06:00 27.0 °F 25.0 °F 30.35 in Calm     92 % 0.00 in WeatherDisplay:10.37 W/m2 FEW
06:05 26.9 °F 24.9 °F 30.35 in Calm     92 % 0.00 in WeatherDisplay:10.37 W/m2 FEW
06:20 26.6 °F 24.6 °F 30.35 in Calm     92 % 0.00 in WeatherDisplay:10.37 W/m2 FEW
06:25 26.5 °F 24.5 °F 30.35 in Calm     92 % 0.00 in WeatherDisplay:10.37 W/m2 FEW
06:30 26.5 °F 24.5 °F 30.35 in Calm     92 % 0.00 in WeatherDisplay:10.37 W/m2 FEW
06:40 26.3 °F 24.6 °F 30.34 in Calm     93 % 0.00 in WeatherDisplay:10.37 W/m2 FEW
07:00 26.3 °F 24.5 °F 30.34 in Calm     93 % 0.00 in WeatherDisplay:10.37 W/m2 FEW
07:20 26.4 °F 24.9 °F 30.34 in Calm     94 % 0.00 in WeatherDisplay:10.37 W/m2 FEW
07:30 26.6 °F 25.1 °F 30.34 in Calm     94 % 0.00 in WeatherDisplay:10.37 W/m2 FEW
07:35 26.8 °F 25.3 °F 30.33 in Calm     94 % 0.00 in WeatherDisplay:10.37 W/m2 FEW
07:40 26.9 °F 25.4 °F 30.33 in Calm     94 % 0.00 in WeatherDisplay:10.37 W/m2 FEW
07:55 27.3 °F 25.8 °F 30.33 in Calm     94 % 0.00 in WeatherDisplay:10.37 W/m2 FEW
08:00 27.4 °F 25.9 °F 30.33 in Calm     94 % 0.00 in WeatherDisplay:10.37 W/m2 FEW
08:15 27.9 °F 26.7 °F 30.33 in Calm     95 % 0.00 in WeatherDisplay:10.37 W/m2 FEW
08:25 28.4 °F 27.1 °F 30.34 in Calm     95 % 0.00 in WeatherDisplay:10.37 W/m2 FEW
08:30 28.6 °F 27.4 °F 30.34 in Calm     95 % 0.00 in WeatherDisplay:10.37 W/m2 FEW
08:45 30.0 °F 29.0 °F 30.33 in Calm   3.0 mph 96 % 0.00 in WeatherDisplay:10.37 W/m2 FEW
08:55 30.6 °F 29.3 °F 30.33 in Calm   2.0 mph 95 % 0.00 in WeatherDisplay:10.37 W/m2 FEW
09:00 30.8 °F 29.8 °F 30.34 in Calm   2.0 mph 96 % 0.00 in WeatherDisplay:10.37 W/m2 FEW
09:10 31.1 °F 29.8 °F 30.33 in Calm   1.0 mph 95 % 0.00 in WeatherDisplay:10.37 W/m2 FEW
09:15 31.2 °F 30.0 °F 30.34 in Calm   1.0 mph 95 % 0.00 in WeatherDisplay:10.37 W/m2 FEW
09:20 31.4 °F 30.1 °F 30.34 in Calm   1.0 mph 95 % 0.00 in WeatherDisplay:10.37 W/m2 FEW
09:35 31.8 °F 30.5 °F 30.34 in Calm   1.0 mph 95 % 0.00 in WeatherDisplay:10.37 W/m2 FEW
09:40 31.9 °F 30.6 °F 30.34 in Calm   1.0 mph 95 % 0.00 in WeatherDisplay:10.37 W/m2 FEW
09:45 31.9 °F 30.4 °F 30.34 in Calm   1.0 mph 94 % 0.00 in WeatherDisplay:10.37 W/m2 FEW
10:05 32.3 °F 30.5 °F 30.35 in Calm   1.0 mph 93 % 0.00 in WeatherDisplay:10.37 W/m2 FEW
10:30 32.7 °F 30.1 °F 30.34 in Calm   2.0 mph 90 % 0.00 in WeatherDisplay:10.37 W/m2 FEW
10:35 32.8 °F 30.2 °F 30.33 in East 1.0 mph 5.0 mph 90 % 0.00 in WeatherDisplay:10.37 W/m2 FEW
10:45 33.0 °F 30.1 °F 30.33 in ESE 1.0 mph 9.0 mph 89 % 0.00 in WeatherDisplay:10.37 W/m2 FEW
10:50 33.0 °F 29.8 °F 30.33 in East 1.0 mph 5.0 mph 88 % 0.00 in WeatherDisplay:10.37 W/m2 FEW
10:55 33.1 °F 29.9 °F 30.33 in ESE 2.0 mph 7.0 mph 88 % 0.00 in WeatherDisplay:10.37 W/m2 FEW
11:00 33.1 °F 29.9 °F 30.32 in East 2.0 mph 6.0 mph 88 % 0.00 in WeatherDisplay:10.37 W/m2 FEW
11:25 33.3 °F 29.9 °F 30.30 in Calm   3.0 mph 87 % 0.00 in WeatherDisplay:10.37 W/m2 FEW
11:30 33.4 °F 29.9 °F 30.30 in Calm   3.0 mph 87 % 0.00 in WeatherDisplay:10.37 W/m2 FEW
11:35 33.4 °F 30.0 °F 30.30 in Calm   4.0 mph 87 % 0.00 in WeatherDisplay:10.37 W/m2 FEW
11:40 33.5 °F 30.0 °F 30.31 in Calm   6.0 mph 87 % 0.00 in WeatherDisplay:10.37 W/m2 FEW
11:50 33.5 °F 29.7 °F 30.31 in East 1.0 mph 7.0 mph 86 % 0.00 in WeatherDisplay:10.37 W/m2 FEW
12:00 33.4 °F 29.7 °F 30.30 in East 1.0 mph 5.0 mph 86 % 0.00 in WeatherDisplay:10.37 W/m2 FEW
12:05 33.4 °F 29.7 °F 30.30 in ESE 1.0 mph 9.0 mph 86 % 0.00 in WeatherDisplay:10.37 W/m2 FEW
12:25 33.3 °F 29.6 °F 30.30 in Calm   2.0 mph 86 % 0.00 in WeatherDisplay:10.37 W/m2 FEW
12:30 33.3 °F 29.6 °F 30.29 in Calm   2.0 mph 86 % 0.00 in WeatherDisplay:10.37 W/m2 FEW
12:50 33.1 °F 28.8 °F 30.27 in East 1.0 mph 7.0 mph 84 % 0.00 in WeatherDisplay:10.37 W/m2 FEW
13:00 33.1 °F 28.8 °F 30.27 in Calm   5.0 mph 84 % 0.00 in WeatherDisplay:10.37 W/m2 FEW
13:15 33.1 °F 28.8 °F 30.26 in ESE 1.0 mph 7.0 mph 84 % 0.00 in WeatherDisplay:10.37 W/m2 RA
13:25 33.1 °F 28.5 °F 30.26 in Calm   3.0 mph 83 % 0.00 in WeatherDisplay:10.37 W/m2 FEW
13:30 33.2 °F 28.6 °F 30.26 in Calm   2.0 mph 83 % 0.00 in WeatherDisplay:10.37 W/m2 FEW
13:35 33.3 °F 28.7 °F 30.26 in Calm   6.0 mph 83 % 0.00 in WeatherDisplay:10.37 W/m2 FEW
13:45 33.3 °F 28.4 °F 30.26 in Calm   9.0 mph 82 % 0.00 in WeatherDisplay:10.37 W/m2 FEW
13:50 33.3 °F 28.4 °F 30.26 in Calm   3.0 mph 82 % 0.00 in WeatherDisplay:10.37 W/m2 FEW
13:55 33.4 °F 28.8 °F 30.26 in Calm   3.0 mph 83 % 0.00 in WeatherDisplay:10.37 W/m2 FEW
14:00 33.4 °F 28.8 °F 30.26 in Calm   2.0 mph 83 % 0.00 in WeatherDisplay:10.37 W/m2 FEW
14:10 33.4 °F 28.8 °F 30.25 in East 2.0 mph 8.0 mph 83 % 0.00 in WeatherDisplay:10.37 W/m2 FEW
14:15 33.4 °F 28.8 °F 30.25 in East 1.0 mph 5.0 mph 83 % 0.00 in WeatherDisplay:10.37 W/m2 FEW
14:20 33.4 °F 28.8 °F 30.24 in Calm   3.0 mph 83 % 0.00 in WeatherDisplay:10.37 W/m2 FEW
14:30 33.4 °F 28.8 °F 30.23 in East 1.0 mph 6.0 mph 83 % 0.00 in WeatherDisplay:10.37 W/m2 FEW
14:40 33.3 °F 29.0 °F 30.23 in East 1.0 mph 7.0 mph 84 % 0.00 in WeatherDisplay:10.37 W/m2 FEW
14:45 33.3 °F 29.0 °F 30.22 in Calm   4.0 mph 84 % 0.00 in WeatherDisplay:10.37 W/m2 FEW
14:50 33.3 °F 29.0 °F 30.22 in Calm   7.0 mph 84 % 0.00 in WeatherDisplay:10.37 W/m2 FEW
15:00 33.2 °F 29.4 °F 30.23 in East 1.0 mph 6.0 mph 86 % 0.00 in WeatherDisplay:10.37 W/m2 FEW
15:05 33.0 °F 29.8 °F 30.23 in East 1.0 mph 4.0 mph 88 % 0.00 in WeatherDisplay:10.37 W/m2 FEW
15:10 32.8 °F 29.7 °F 30.22 in East 1.0 mph 5.0 mph 88 % 0.00 in WeatherDisplay:10.37 W/m2 FEW
15:15 32.6 °F 29.7 °F 30.22 in East 1.0 mph 7.0 mph 89 % 0.00 in WeatherDisplay:10.37 W/m2 FEW
15:20 32.5 °F 29.9 °F 30.21 in Calm   5.0 mph 90 % 0.00 in WeatherDisplay:10.37 W/m2 FEW
15:25 32.4 °F 29.8 °F 30.21 in Calm   3.0 mph 90 % 0.00 in WeatherDisplay:10.37 W/m2 FEW
15:30 32.3 °F 30.0 °F 30.20 in Calm   3.0 mph 91 % 0.00 in WeatherDisplay:10.37 W/m2 FEW
15:40 32.2 °F 29.9 °F 30.20 in East 1.0 mph 5.0 mph 91 % 0.00 in WeatherDisplay:10.37 W/m2 FEW
16:00 31.9 °F 29.8 °F 30.20 in Calm   5.0 mph 92 % 0.00 in WeatherDisplay:10.37 W/m2 FEW
16:05 31.9 °F 29.8 °F 30.20 in Calm   5.0 mph 92 % 0.00 in WeatherDisplay:10.37 W/m2 FEW
16:10 31.8 °F 29.7 °F 30.20 in East 1.0 mph 3.0 mph 92 % 0.00 in WeatherDisplay:10.37 W/m2 FEW
16:30 31.7 °F 29.9 °F 30.18 in Calm   2.0 mph 93 % 0.00 in WeatherDisplay:10.37 W/m2 FEW
16:35 31.6 °F 29.9 °F 30.18 in Calm   5.0 mph 93 % 0.00 in WeatherDisplay:10.37 W/m2 FEW
17:00 31.5 °F 29.7 °F 30.15 in Calm   3.0 mph 93 % 0.00 in WeatherDisplay:10.37 W/m2 FEW
17:05 31.5 °F 29.7 °F 30.15 in ENE 2.0 mph 7.0 mph 93 % 0.01 in WeatherDisplay:10.37 W/m2 RA
17:20 31.4 °F 29.9 °F 30.14 in East 1.0 mph 6.0 mph 94 % 0.00 in WeatherDisplay:10.37 W/m2 FEW
17:25 31.4 °F 29.9 °F 30.13 in East 1.0 mph 5.0 mph 94 % 0.01 in WeatherDisplay:10.37 W/m2 RA
17:30 31.4 °F 29.9 °F 30.13 in East 1.0 mph 6.0 mph 94 % 0.00 in WeatherDisplay:10.37 W/m2 RA
17:35 31.3 °F 29.8 °F 30.12 in East 2.0 mph 8.0 mph 94 % 0.00 in WeatherDisplay:10.37 W/m2 FEW
17:45 31.3 °F 29.8 °F 30.11 in East 2.0 mph 7.0 mph 94 % 0.00 in WeatherDisplay:10.37 W/m2 FEW
18:00 31.4 °F 30.1 °F 30.10 in East 1.0 mph 5.0 mph 95 % 0.00 in WeatherDisplay:10.37 W/m2 RA
18:05 31.4 °F 30.1 °F 30.10 in East 1.0 mph 5.0 mph 95 % 0.00 in WeatherDisplay:10.37 W/m2 FEW
18:15 31.5 °F 30.2 °F 30.10 in East 1.0 mph 9.0 mph 95 % 0.00 in WeatherDisplay:10.37 W/m2 RA
18:20 31.6 °F 30.3 °F 30.10 in ESE 2.0 mph 13.0 mph 95 % 0.01 in WeatherDisplay:10.37 W/m2 RA
18:35 31.6 °F 30.4 °F 30.09 in East 1.0 mph 8.0 mph 95 % 0.01 in WeatherDisplay:10.37 W/m2 RA
18:45 31.7 °F 30.4 °F 30.08 in East 2.0 mph 10.0 mph 95 % 0.01 in WeatherDisplay:10.37 W/m2 RA
18:50 31.7 °F 30.4 °F 30.08 in East 1.0 mph 6.0 mph 95 % 0.00 in WeatherDisplay:10.37 W/m2 RA
19:00 31.8 °F 30.5 °F 30.07 in East 2.0 mph 8.0 mph 95 % 0.01 in WeatherDisplay:10.37 W/m2 RA
19:05 31.8 °F 30.5 °F 30.07 in East 1.0 mph 5.0 mph 95 % 0.01 in WeatherDisplay:10.37 W/m2 RA
19:10 31.8 °F 30.8 °F 30.06 in East 1.0 mph 3.0 mph 96 % 0.01 in WeatherDisplay:10.37 W/m2 RA
19:25 31.9 °F 30.9 °F 30.05 in East 1.0 mph 7.0 mph 96 % 0.00 in WeatherDisplay:10.37 W/m2 RA
19:40 32.0 °F 31.0 °F 30.04 in Calm   5.0 mph 96 % 0.01 in WeatherDisplay:10.37 W/m2 RA
19:45 32.1 °F 31.1 °F 30.04 in Calm   6.0 mph 96 % 0.00 in WeatherDisplay:10.37 W/m2 RA
19:50 32.1 °F 31.1 °F 30.03 in ESE 1.0 mph 6.0 mph 96 % 0.01 in WeatherDisplay:10.37 W/m2 RA
20:00 32.2 °F 31.2 °F 30.02 in East 1.0 mph 6.0 mph 96 % 0.01 in WeatherDisplay:10.37 W/m2 RA
20:10 32.2 °F 31.2 °F 30.01 in East 1.0 mph 3.0 mph 96 % 0.00 in WeatherDisplay:10.37 W/m2 RA
20:20 32.3 °F 31.3 °F 30.00 in Calm   3.0 mph 96 % 0.01 in WeatherDisplay:10.37 W/m2 RA
20:35 32.4 °F 31.4 °F 29.99 in Calm   2.0 mph 96 % 0.01 in WeatherDisplay:10.37 W/m2 RA
20:40 32.4 °F 31.4 °F 29.99 in Calm   7.0 mph 96 % 0.01 in WeatherDisplay:10.37 W/m2 RA
20:45 32.4 °F 31.4 °F 29.98 in East 1.0 mph 3.0 mph 96 % 0.01 in WeatherDisplay:10.37 W/m2 RA
20:55 32.4 °F 31.4 °F 29.97 in East 1.0 mph 6.0 mph 96 % 0.02 in WeatherDisplay:10.37 W/m2 RA
21:00 32.4 °F 31.4 °F 29.96 in East 1.0 mph 5.0 mph 96 % 0.01 in WeatherDisplay:10.37 W/m2 RA
21:05 32.4 °F 31.4 °F 29.96 in Calm   5.0 mph 96 % 0.01 in WeatherDisplay:10.37 W/m2 RA
21:15 32.4 °F 31.4 °F 29.95 in Calm   3.0 mph 96 % 0.01 in WeatherDisplay:10.37 W/m2 RA
21:25 32.5 °F 31.5 °F 29.94 in East 1.0 mph 5.0 mph 96 % 0.01 in WeatherDisplay:10.37 W/m2 RA
21:35 32.5 °F 31.5 °F 29.93 in East 1.0 mph 5.0 mph 96 % 0.01 in WeatherDisplay:10.37 W/m2 RA
21:50 32.5 °F 31.5 °F 29.91 in Calm   5.0 mph 96 % 0.01 in WeatherDisplay:10.37 W/m2 RA
21:55 32.5 °F 31.5 °F 29.91 in Calm     96 % 0.01 in WeatherDisplay:10.37 W/m2 RA
22:10 32.5 °F 31.5 °F 29.90 in Calm     96 % 0.01 in WeatherDisplay:10.37 W/m2 RA
22:15 32.5 °F 31.5 °F 29.89 in Calm     96 % 0.01 in WeatherDisplay:10.37 W/m2 RA
22:45 32.5 °F 31.5 °F 29.87 in Calm     96 % 0.01 in WeatherDisplay:10.37 W/m2 RA
22:50 32.5 °F 31.5 °F 29.86 in Calm     96 % 0.01 in WeatherDisplay:10.37 W/m2 RA
23:10 32.5 °F 31.5 °F 29.84 in Calm     96 % 0.01 in WeatherDisplay:10.37 W/m2 RA
23:15 32.5 °F 31.5 °F 29.85 in Calm     96 % 0.00 in WeatherDisplay:10.37 W/m2 RA
23:25 32.5 °F 32.5 °F 29.84 in Calm     100 % 0.01 in WeatherDisplay:10.37 W/m2 RA
23:30 32.5 °F 32.5 °F 29.83 in Calm     100 % 0.02 in WeatherDisplay:10.37 W/m2 RA
23:35 32.5 °F 32.5 °F 29.83 in Calm     100 % 0.01 in WeatherDisplay:10.37 W/m2 RA
23:45 32.5 °F 32.5 °F 29.82 in Calm     100 % 0.01 in WeatherDisplay:10.37 W/m2 RA
23:50 32.5 °F 32.5 °F 29.81 in Calm     100 % 0.01 in WeatherDisplay:10.37 W/m2 RA
Juneau County Weather
Compliments of Weather Underground - 2.25 mb